Time;durP1;ratioP1;P1;durP2;ratioP2;P2;SDS_P1;SDS_P2;PMS_P1;PMS_P2;Temp;Humidity;BMP_temperature;BMP_pressure;BME280_temperature;BME280_humidity;BME280_pressure;Samples;Min_cycle;Max_cycle;Signal;HPM_P1;HPM_P2
2022/01/24 00:01:42;;;;;;;52.40;23.90;;;-1.50;99.90;;;;;;4959707;28;20058;-85
2022/01/24 00:04:08;;;;;;;49.13;21.58;;;-1.60;99.90;;;;;;4943898;28;20027;-84
2022/01/24 00:06:34;;;;;;;48.53;20.80;;;-1.60;99.90;;;;;;4959173;28;20062;-84
2022/01/24 00:09:01;;;;;;;74.93;31.17;;;-1.60;99.90;;;;;;4959575;28;20113;-85
2022/01/24 00:11:42;;;;;;;71.03;29.77;;;-1.60;99.90;;;;;;4959536;28;20113;-85
2022/01/24 00:27:19;;;;;;;39.30;18.73;;;-1.30;99.90;;;;;;4974991;28;20114;-85
2022/01/24 00:29:45;;;;;;;37.38;18.52;;;-1.10;99.90;;;;;;4942696;28;20069;-84
2022/01/24 00:32:11;;;;;;;38.85;17.90;;;-1.00;99.90;;;;;;4958517;28;20081;-85
2022/01/24 00:34:36;;;;;;;42.65;20.02;;;-0.90;99.90;;;;;;4958531;28;20027;-85
2022/01/24 00:37:03;;;;;;;37.38;18.40;;;-0.70;99.90;;;;;;4975828;28;20605;-85
2022/01/24 00:39:29;;;;;;;35.80;17.85;;;-0.50;99.90;;;;;;4958673;28;20039;-85
2022/01/24 00:47:00;;;;;;;41.30;21.00;;;-0.20;99.90;;;;;;4958927;28;20439;-85
2022/01/24 00:54:45;;;;;;;44.95;21.33;;;0.10;99.90;;;;;;4974135;28;20055;-85
2022/01/24 00:57:11;;;;;;;43.22;21.90;;;0.20;99.90;;;;;;4974051;28;20097;-85
2022/01/24 00:59:38;;;;;;;39.80;20.05;;;0.20;99.90;;;;;;4942361;28;20042;-85
2022/01/24 01:02:06;;;;;;;38.38;18.42;;;0.30;99.90;;;;;;4958404;28;20057;-84
2022/01/24 01:04:43;;;;;;;42.78;19.00;;;0.30;99.90;;;;;;4975005;28;20030;-85
2022/01/24 01:07:09;;;;;;;31.80;16.05;;;0.30;99.90;;;;;;4942226;28;20066;-85
2022/01/24 01:20:50;;;;;;;33.53;16.85;;;0.20;99.90;;;;;;4974408;28;20035;-85
2022/01/24 01:23:16;;;;;;;33.72;16.90;;;0.10;99.90;;;;;;4958176;28;20034;-85
2022/01/24 01:25:43;;;;;;;38.58;18.70;;;0.00;99.90;;;;;;4975737;28;20109;-85
2022/01/24 01:28:09;;;;;;;28.50;15.15;;;-0.10;99.90;;;;;;4942230;28;20046;-85
2022/01/24 01:30:41;;;;;;;25.10;14.55;;;-0.10;99.90;;;;;;4957843;28;20023;-85
2022/01/24 01:33:19;;;;;;;28.23;14.32;;;-0.20;99.90;;;;;;4975257;28;20070;-85
2022/01/24 01:57:01;;;;;;;24.70;13.25;;;-0.50;99.90;;;;;;4957693;28;20474;-85
2022/01/24 01:59:27;;;;;;;24.83;12.50;;;-0.50;99.90;;;;;;4957354;28;20038;-84
2022/01/24 02:01:53;;;;;;;23.50;13.25;;;-0.60;99.90;;;;;;4957568;28;20030;-85
2022/01/24 02:04:19;;;;;;;26.13;14.10;;;-0.60;99.90;;;;;;4941319;28;20556;-85
2022/01/24 02:06:45;;;;;;;25.90;12.98;;;-0.50;99.90;;;;;;4941382;28;20030;-85
2022/01/24 02:09:12;;;;;;;25.63;13.57;;;-0.50;99.90;;;;;;4957317;28;20031;-84
2022/01/24 02:11:39;;;;;;;28.75;12.65;;;-0.60;99.90;;;;;;4941339;28;20355;-84
2022/01/24 02:14:09;;;;;;;28.48;13.57;;;-0.60;99.90;;;;;;4941014;28;20042;-85
2022/01/24 02:20:09;;;;;;;28.17;14.40;;;-0.50;99.90;;;;;;4931721;28;20074;-84
2022/01/24 02:24:58;;;;;;;28.08;13.60;;;-0.30;99.90;;;;;;4956950;28;20035;-85
2022/01/24 02:27:27;;;;;;;26.08;12.77;;;-0.20;99.90;;;;;;4941062;28;20082;-85
2022/01/24 02:30:10;;;;;;;25.33;12.60;;;0.00;99.90;;;;;;4941117;28;20027;-84
2022/01/24 02:32:40;;;;;;;27.58;13.02;;;0.10;99.90;;;;;;4957206;28;20042;-85
2022/01/24 02:35:07;;;;;;;21.92;11.77;;;0.20;99.90;;;;;;4957235;28;20023;-85
2022/01/24 02:37:33;;;;;;;27.83;12.68;;;0.30;99.90;;;;;;4957131;28;20439;-84
2022/01/24 02:40:05;;;;;;;22.35;12.20;;;0.40;99.90;;;;;;4974735;28;20117;-85
2022/01/24 02:48:25;;;;;;;23.58;11.10;;;0.50;99.90;;;;;;4974102;28;20376;-85
2022/01/24 02:53:21;;;;;;;15.93;9.25;;;0.50;99.90;;;;;;4974382;28;20466;-84
2022/01/24 02:55:47;;;;;;;18.77;9.48;;;0.50;99.90;;;;;;4972864;28;20023;-85
2022/01/24 02:58:15;;;;;;;14.45;8.93;;;0.50;99.90;;;;;;4940972;28;20713;-84
2022/01/24 03:00:41;;;;;;;22.20;9.25;;;0.50;99.90;;;;;;4973148;28;20031;-84
2022/01/24 03:03:07;;;;;;;13.63;8.60;;;0.60;99.90;;;;;;4956978;28;20366;-85
2022/01/24 03:05:33;;;;;;;17.60;9.70;;;0.50;99.90;;;;;;4940827;28;20030;-85
2022/01/24 03:07:59;;;;;;;25.50;11.93;;;0.50;99.90;;;;;;4960030;28;20486;-85
2022/01/24 03:10:28;;;;;;;26.90;12.65;;;0.50;99.90;;;;;;4976665;28;20127;-84
2022/01/24 03:15:40;;;;;;;33.22;14.77;;;0.50;99.90;;;;;;4977421;28;20030;-85
2022/01/24 03:18:07;;;;;;;21.83;11.82;;;0.50;99.90;;;;;;4944341;28;20038;-85
2022/01/24 03:20:33;;;;;;;20.60;11.40;;;0.50;99.90;;;;;;4944096;28;20077;-85
2022/01/24 03:22:59;;;;;;;25.85;12.05;;;0.50;99.90;;;;;;4960194;28;20504;-85
2022/01/24 03:25:24;;;;;;;25.38;11.80;;;0.50;99.90;;;;;;4960074;28;20031;-85
2022/01/24 03:27:50;;;;;;;23.85;11.90;;;0.60;99.90;;;;;;4959912;28;20094;-85
2022/01/24 03:30:16;;;;;;;15.82;9.55;;;0.60;99.90;;;;;;4960379;28;20022;-84
2022/01/24 03:32:41;;;;;;;19.90;12.32;;;0.60;99.90;;;;;;4975967;28;20027;-85
2022/01/24 03:35:08;;;;;;;22.13;12.25;;;0.60;99.90;;;;;;4977265;28;20109;-84
2022/01/24 03:37:35;;;;;;;24.13;11.93;;;0.70;99.90;;;;;;4959736;28;20371;-85
2022/01/24 03:40:02;;;;;;;24.85;13.35;;;0.70;99.90;;;;;;4959923;28;20106;-85
2022/01/24 03:42:28;;;;;;;17.50;10.40;;;0.70;99.90;;;;;;4944020;28;20561;-84
2022/01/24 03:44:58;;;;;;;16.83;9.93;;;0.70;99.90;;;;;;4959695;28;20062;-85
2022/01/24 03:50:17;;;;;;;12.27;9.20;;;0.70;99.90;;;;;;4947196;28;20127;-85
2022/01/24 03:52:46;;;;;;;13.15;8.65;;;0.70;99.90;;;;;;4959881;28;20030;-85
2022/01/24 03:55:12;;;;;;;14.23;8.80;;;0.70;99.90;;;;;;4959690;28;20027;-84
2022/01/24 03:57:39;;;;;;;17.80;7.18;;;0.70;99.90;;;;;;4959921;28;20437;-84
2022/01/24 04:00:07;;;;;;;14.20;8.27;;;0.70;99.90;;;;;;4959640;28;20030;-85
2022/01/24 04:02:39;;;;;;;13.15;7.45;;;0.70;99.90;;;;;;4976801;28;20041;-85
2022/01/24 04:05:05;;;;;;;10.93;7.25;;;0.80;99.90;;;;;;4976768;28;20450;-84
2022/01/24 04:07:31;;;;;;;16.30;7.25;;;0.80;99.90;;;;;;4959512;28;20398;-85
2022/01/24 04:10:04;;;;;;;14.63;7.20;;;0.80;99.90;;;;;;4943442;28;20031;-85
2022/01/24 04:12:30;;;;;;;13.98;7.40;;;0.80;99.90;;;;;;4975307;28;20505;-84
2022/01/24 04:15:09;;;;;;;12.13;7.50;;;0.80;99.90;;;;;;4942683;28;20043;-84
2022/01/24 04:17:44;;;;;;;15.18;7.60;;;0.80;99.90;;;;;;4958430;28;20118;-86
2022/01/24 04:22:58;;;;;;;22.38;9.80;;;0.80;99.90;;;;;;4975587;28;20402;-85
2022/01/24 04:25:24;;;;;;;18.83;8.52;;;0.80;99.90;;;;;;4976068;28;20034;-83
2022/01/24 04:27:54;;;;;;;16.60;8.90;;;0.80;99.90;;;;;;4975049;28;20027;-84
2022/01/24 04:30:21;;;;;;;13.80;8.75;;;0.80;99.90;;;;;;4976333;28;20073;-85
2022/01/24 04:32:46;;;;;;;13.27;8.63;;;0.80;99.90;;;;;;4942743;28;20022;-85
2022/01/24 04:35:12;;;;;;;14.38;9.40;;;0.70;99.90;;;;;;4974822;28;20053;-86
2022/01/24 04:37:38;;;;;;;17.33;9.98;;;0.80;99.90;;;;;;4958974;28;20494;-84
2022/01/24 04:40:05;;;;;;;14.65;8.70;;;0.80;99.90;;;;;;4974925;28;20057;-84
2022/01/24 04:43:01;;;;;;;16.42;8.93;;;0.80;99.90;;;;;;4958885;28;20034;-85
2022/01/24 04:50:27;;;;;;;;;;;0.80;99.90;;;;;;4975366;28;20040;-84
2022/01/24 04:53:28;;;;;;;13.57;9.27;;;0.80;99.90;;;;;;4974944;28;20790;-85
2022/01/24 04:55:54;;;;;;;14.98;9.73;;;0.80;99.90;;;;;;4974881;28;20031;-85
2022/01/24 04:58:20;;;;;;;17.35;10.18;;;0.80;99.90;;;;;;4975635;28;20042;-85
2022/01/24 05:00:46;;;;;;;21.38;10.43;;;0.80;99.90;;;;;;4958512;28;20027;-84
2022/01/24 05:03:11;;;;;;;15.48;10.13;;;0.80;99.90;;;;;;4942274;28;20401;-85
2022/01/24 05:05:37;;;;;;;15.07;10.15;;;0.70;99.90;;;;;;4958446;28;20038;-85
2022/01/24 05:08:05;;;;;;;16.05;10.35;;;0.80;99.90;;;;;;4942198;28;20085;-85
2022/01/24 05:10:38;;;;;;;19.88;10.68;;;0.80;99.90;;;;;;4958619;28;20430;-84
2022/01/24 05:24:01;;;;;;;15.77;9.45;;;0.80;99.90;;;;;;4976209;28;20031;-84
2022/01/24 05:26:26;;;;;;;18.25;11.48;;;0.80;99.90;;;;;;4942768;28;20613;-85
2022/01/24 05:28:52;;;;;;;18.70;11.13;;;0.80;99.90;;;;;;4958604;28;20045;-84
2022/01/24 05:31:18;;;;;;;18.77;11.88;;;0.80;99.90;;;;;;4959001;28;20458;-84
2022/01/24 05:33:43;;;;;;;21.73;11.80;;;0.80;99.90;;;;;;4942275;28;20038;-84
2022/01/24 05:36:09;;;;;;;18.80;12.25;;;0.80;99.90;;;;;;4958166;28;20497;-84
2022/01/24 05:38:35;;;;;;;21.60;12.38;;;0.80;99.90;;;;;;4958806;28;20394;-84
2022/01/24 05:41:01;;;;;;;24.02;12.40;;;0.80;99.90;;;;;;4958229;28;20068;-85
2022/01/24 05:43:27;;;;;;;21.27;12.45;;;0.80;99.90;;;;;;4975273;28;20506;-85
2022/01/24 05:45:52;;;;;;;18.42;11.73;;;0.80;99.90;;;;;;4975714;28;20042;-85
2022/01/24 05:48:18;;;;;;;21.60;13.82;;;0.80;99.90;;;;;;4942181;28;20421;-85
2022/01/24 05:50:44;;;;;;;22.17;13.23;;;0.80;99.90;;;;;;4958089;28;20469;-85
2022/01/24 05:53:09;;;;;;;19.90;12.25;;;0.80;99.90;;;;;;4941990;28;20085;-84
2022/01/24 05:55:35;;;;;;;17.98;12.05;;;0.80;99.90;;;;;;4975505;28;20042;-85
2022/01/24 05:58:04;;;;;;;22.35;12.77;;;0.80;99.90;;;;;;4941182;28;20030;-85
2022/01/24 06:00:30;;;;;;;18.80;12.82;;;0.80;99.90;;;;;;4941521;28;20039;-85
2022/01/24 06:02:55;;;;;;;24.20;13.18;;;0.80;99.90;;;;;;4957774;28;20037;-85
2022/01/24 06:05:32;;;;;;;23.02;13.68;;;0.80;99.90;;;;;;4957866;28;20026;-85
2022/01/24 06:07:58;;;;;;;28.60;13.73;;;0.80;99.90;;;;;;4957815;28;20295;-85
2022/01/24 06:10:24;;;;;;;22.25;13.90;;;0.80;99.90;;;;;;4958160;28;20027;-85
2022/01/24 06:12:50;;;;;;;27.40;15.18;;;0.80;99.90;;;;;;4941881;28;20486;-84
2022/01/24 06:15:15;;;;;;;21.75;14.15;;;0.80;99.90;;;;;;4942372;28;20026;-85
2022/01/24 06:18:33;;;;;;;24.55;15.45;;;0.80;99.90;;;;;;4942165;28;20038;-84
2022/01/24 06:20:59;;;;;;;29.92;15.88;;;0.80;99.90;;;;;;4974443;28;20066;-85
2022/01/24 06:23:25;;;;;;;23.67;14.85;;;0.80;99.90;;;;;;4958597;28;20499;-84
2022/01/24 06:25:51;;;;;;;26.15;13.75;;;0.80;99.90;;;;;;4942161;28;20105;-86
2022/01/24 06:28:16;;;;;;;25.75;14.60;;;0.80;99.90;;;;;;4975330;28;20038;-85
2022/01/24 06:30:44;;;;;;;19.90;13.43;;;0.80;99.90;;;;;;4975765;28;20379;-84
2022/01/24 06:33:10;;;;;;;26.85;14.00;;;0.80;99.90;;;;;;4942306;28;20030;-85
2022/01/24 06:35:35;;;;;;;27.42;16.08;;;0.80;99.90;;;;;;4958245;28;20089;-84
2022/01/24 06:38:01;;;;;;;21.88;14.40;;;0.80;99.90;;;;;;4942469;28;20043;-84
2022/01/24 06:40:27;;;;;;;24.25;14.13;;;0.80;99.90;;;;;;4958286;28;20038;-84
2022/01/24 06:42:53;;;;;;;23.33;13.50;;;0.90;99.90;;;;;;4945831;28;20035;-84
2022/01/24 06:45:19;;;;;;;26.10;14.15;;;0.90;99.90;;;;;;4945596;28;20035;-85
2022/01/24 06:47:44;;;;;;;24.45;14.45;;;0.90;99.90;;;;;;4961160;28;20486;-84
2022/01/24 06:50:10;;;;;;;26.67;14.65;;;0.90;99.90;;;;;;4977649;28;20106;-84
2022/01/24 06:52:37;;;;;;;22.17;13.93;;;0.80;99.90;;;;;;4961270;28;20367;-84
2022/01/24 06:55:03;;;;;;;26.15;14.00;;;0.80;99.90;;;;;;4944980;28;20386;-84
2022/01/24 06:57:29;;;;;;;22.27;13.73;;;0.80;99.90;;;;;;4960934;28;20443;-84
2022/01/24 06:59:56;;;;;;;25.83;14.15;;;0.80;99.90;;;;;;4945645;28;20094;-83
2022/01/24 07:02:22;;;;;;;20.48;13.40;;;0.80;99.90;;;;;;4945099;28;20379;-85
2022/01/24 07:04:48;;;;;;;28.40;15.48;;;0.80;99.90;;;;;;4944877;28;20062;-84
2022/01/24 07:07:14;;;;;;;23.60;13.57;;;0.80;99.90;;;;;;4960808;28;20034;-83
2022/01/24 07:09:40;;;;;;;23.60;13.48;;;0.80;99.90;;;;;;4944955;28;20143;-84
2022/01/24 07:12:07;;;;;;;24.05;12.65;;;0.80;99.90;;;;;;4945418;28;20470;-84
2022/01/24 07:14:33;;;;;;;21.42;13.85;;;0.80;99.90;;;;;;4945086;28;20382;-84
2022/01/24 07:19:27;;;;;;;48.95;22.92;;;0.80;99.90;;;;;;4960668;28;20557;-83
2022/01/24 07:21:55;;;;;;;46.35;21.40;;;0.70;99.90;;;;;;4960818;28;20042;-82
2022/01/24 07:24:20;;;;;;;24.27;14.82;;;0.80;99.90;;;;;;4945038;28;20053;-84
2022/01/24 07:26:52;;;;;;;26.95;13.35;;;0.80;99.90;;;;;;4978345;28;20022;-84
2022/01/24 07:29:18;;;;;;;29.27;15.70;;;0.80;99.90;;;;;;4946799;28;20359;-85
2022/01/24 07:31:46;;;;;;;33.47;15.35;;;0.80;99.90;;;;;;4966180;28;20502;-84
2022/01/24 07:34:12;;;;;;;28.42;14.60;;;0.90;99.90;;;;;;4964908;28;20039;-84
2022/01/24 07:36:38;;;;;;;30.10;14.93;;;0.90;99.90;;;;;;4944469;28;20039;-84
2022/01/24 07:39:04;;;;;;;23.20;14.35;;;0.90;99.90;;;;;;4959813;28;20125;-83
2022/01/24 07:41:33;;;;;;;28.52;15.77;;;0.90;99.90;;;;;;4977534;28;20124;-84
2022/01/24 07:44:00;;;;;;;33.40;18.05;;;0.90;99.90;;;;;;4944103;28;20131;-84
2022/01/24 07:46:26;;;;;;;24.58;14.30;;;0.90;99.90;;;;;;4944114;28;20035;-85
2022/01/24 07:48:52;;;;;;;26.95;13.43;;;1.00;99.90;;;;;;4959700;28;20026;-84
2022/01/24 07:51:18;;;;;;;24.35;14.30;;;1.00;99.90;;;;;;4944107;28;20166;-83
2022/01/24 07:53:45;;;;;;;28.40;14.30;;;1.10;99.90;;;;;;4942265;28;20035;-84
2022/01/24 07:56:12;;;;;;;25.33;14.80;;;1.00;99.90;;;;;;4943595;28;20463;-84
2022/01/24 07:58:37;;;;;;;28.80;17.33;;;1.00;99.90;;;;;;4958774;28;20039;-84
2022/01/24 08:01:04;;;;;;;22.42;13.68;;;1.00;99.90;;;;;;4943400;28;20046;-83
2022/01/24 08:03:29;;;;;;;25.23;13.60;;;1.00;99.90;;;;;;4960066;28;20474;-82
2022/01/24 08:05:56;;;;;;;21.75;13.55;;;1.10;99.90;;;;;;4959440;28;20103;-83
2022/01/24 08:08:21;;;;;;;26.23;13.25;;;1.10;99.90;;;;;;4959645;28;20043;-85
2022/01/24 08:10:47;;;;;;;22.17;12.80;;;1.10;99.90;;;;;;4959636;28;20382;-83
2022/01/24 08:13:13;;;;;;;32.55;16.35;;;1.20;99.90;;;;;;4943547;28;20038;-83
2022/01/24 08:15:40;;;;;;;25.02;16.05;;;1.20;99.90;;;;;;4959739;28;20023;-83
2022/01/24 08:18:06;;;;;;;25.25;13.93;;;1.20;99.90;;;;;;4976117;28;20038;-83
2022/01/24 08:20:33;;;;;;;24.90;12.13;;;1.20;99.90;;;;;;4943544;28;20061;-83
2022/01/24 08:23:00;;;;;;;25.58;14.27;;;1.20;99.90;;;;;;4943442;28;20031;-83
2022/01/24 08:25:26;;;;;;;19.23;12.18;;;1.20;99.90;;;;;;4959244;28;20042;-83
2022/01/24 08:27:53;;;;;;;28.35;13.98;;;1.20;99.90;;;;;;4958907;28;20035;-82
2022/01/24 08:30:21;;;;;;;19.98;10.30;;;1.20;99.90;;;;;;4939874;29;20516;-82
2022/01/24 08:32:47;;;;;;;18.60;9.95;;;1.10;99.90;;;;;;4957009;29;20046;-83
2022/01/24 08:35:15;;;;;;;15.05;8.88;;;1.20;99.90;;;;;;4940395;29;20042;-83
2022/01/24 08:37:41;;;;;;;21.90;11.63;;;1.20;99.90;;;;;;4956578;29;20118;-83
2022/01/24 08:40:09;;;;;;;21.35;9.63;;;1.20;99.90;;;;;;4923846;29;20059;-83
2022/01/24 08:47:31;;;;;;;20.65;10.10;;;1.20;99.90;;;;;;4958412;29;20054;-83
2022/01/24 08:49:58;;;;;;;16.08;9.68;;;1.30;99.90;;;;;;4929799;29;20031;-83
2022/01/24 08:52:25;;;;;;;19.38;10.23;;;1.30;99.90;;;;;;4939973;29;20031;-83
2022/01/24 08:54:52;;;;;;;16.13;9.35;;;1.30;99.90;;;;;;4924360;29;20042;-83
2022/01/24 08:57:25;;;;;;;14.70;8.35;;;1.30;99.90;;;;;;4939579;29;20043;-83
2022/01/24 08:59:52;;;;;;;15.60;7.85;;;1.30;99.90;;;;;;4941593;29;20031;-83
2022/01/24 09:02:18;;;;;;;17.27;8.73;;;1.30;99.90;;;;;;4940082;29;20036;-82
2022/01/24 09:04:44;;;;;;;16.00;9.15;;;1.30;99.90;;;;;;4923832;29;20183;-83
2022/01/24 09:07:10;;;;;;;23.02;8.57;;;1.30;99.90;;;;;;4940423;29;20090;-83
2022/01/24 09:09:36;;;;;;;19.25;7.82;;;1.30;99.90;;;;;;4942070;29;20036;-83
2022/01/24 09:12:04;;;;;;;24.13;8.48;;;1.40;99.90;;;;;;4941082;29;20027;-82
2022/01/24 09:14:31;;;;;;;17.25;8.48;;;1.40;99.90;;;;;;4980271;28;20039;-85
2022/01/24 09:16:57;;;;;;;12.35;8.10;;;1.50;99.90;;;;;;4967956;29;20051;-82
2022/01/24 09:19:23;;;;;;;14.90;7.72;;;1.40;99.90;;;;;;4957865;29;20078;-83
2022/01/24 09:21:50;;;;;;;23.65;9.57;;;1.50;99.90;;;;;;4940007;29;20035;-84
2022/01/24 09:24:16;;;;;;;18.52;8.48;;;1.60;99.90;;;;;;4939281;29;20050;-84
2022/01/24 09:26:42;;;;;;;15.65;9.52;;;1.60;99.90;;;;;;4945871;29;20031;-83
2022/01/24 09:29:14;;;;;;;13.18;8.05;;;1.60;99.90;;;;;;4971787;28;20093;-82
2022/01/24 09:31:40;;;;;;;16.17;7.75;;;1.60;99.90;;;;;;4957858;29;20501;-83
2022/01/24 09:34:05;;;;;;;16.10;9.50;;;1.60;99.90;;;;;;4939701;29;20086;-83
2022/01/24 09:36:31;;;;;;;12.07;7.65;;;1.60;99.90;;;;;;4957201;29;20114;-84
2022/01/24 09:38:57;;;;;;;18.33;7.95;;;1.60;99.90;;;;;;4972014;28;20039;-82
2022/01/24 09:41:23;;;;;;;14.85;8.23;;;1.70;99.90;;;;;;4972413;28;20046;-84
2022/01/24 09:43:48;;;;;;;15.38;6.43;;;1.80;99.90;;;;;;4924234;29;20725;-83
2022/01/24 09:46:14;;;;;;;11.75;6.53;;;1.70;99.90;;;;;;4939947;29;20043;-84
2022/01/24 09:48:41;;;;;;;11.00;6.38;;;1.60;99.90;;;;;;4939605;29;20359;-84
2022/01/24 09:51:07;;;;;;;10.50;6.03;;;1.60;99.90;;;;;;4939559;29;20031;-83
2022/01/24 09:53:34;;;;;;;12.38;6.70;;;1.60;99.90;;;;;;4939405;29;20023;-84
2022/01/24 09:56:03;;;;;;;11.77;6.45;;;1.70;99.90;;;;;;4955305;29;20042;-84
2022/01/24 09:58:31;;;;;;;11.88;6.07;;;1.80;99.90;;;;;;4939065;29;20087;-84
2022/01/24 10:00:58;;;;;;;11.98;6.07;;;1.90;99.90;;;;;;4939183;29;20028;-83
2022/01/24 10:03:25;;;;;;;10.85;5.60;;;1.90;99.90;;;;;;4939112;29;20078;-83
2022/01/24 10:05:56;;;;;;;14.20;6.90;;;1.90;99.90;;;;;;4939398;29;20058;-82
2022/01/24 10:08:24;;;;;;;11.25;6.47;;;2.00;99.90;;;;;;4939620;29;20027;-83
2022/01/24 10:11:01;;;;;;;10.60;6.07;;;1.90;99.90;;;;;;4939146;29;20045;-82
2022/01/24 10:19:07;;;;;;;17.40;7.70;;;2.10;99.90;;;;;;4958820;29;20118;-83
2022/01/24 10:21:43;;;;;;;28.33;11.57;;;2.30;99.90;;;;;;4974700;28;20082;-83
2022/01/24 10:24:32;;;;;;;28.98;13.02;;;2.30;99.90;;;;;;4958139;29;20501;-83
2022/01/24 10:27:13;;;;;;;15.45;8.13;;;2.30;99.90;;;;;;4974306;28;20043;-82
2022/01/24 10:29:55;;;;;;;16.00;7.80;;;2.20;99.90;;;;;;4974609;28;20089;-83
2022/01/24 10:32:28;;;;;;;17.27;8.10;;;2.10;99.90;;;;;;4942541;29;20030;-83
2022/01/24 10:34:54;;;;;;;14.10;5.68;;;2.20;99.90;;;;;;4974237;28;20032;-83
2022/01/24 10:37:22;;;;;;;18.52;8.73;;;2.40;99.90;;;;;;4973740;28;20130;-83
2022/01/24 10:40:09;;;;;;;16.38;8.05;;;2.40;99.90;;;;;;4957804;29;20031;-83
2022/01/24 10:42:54;;;;;;;21.83;9.55;;;2.50;99.90;;;;;;4941761;29;20039;-83
2022/01/24 10:45:23;;;;;;;31.67;12.65;;;2.60;99.90;;;;;;4973793;28;20035;-83
2022/01/24 10:47:52;;;;;;;20.52;9.70;;;2.70;99.90;;;;;;4926122;29;20809;-83
2022/01/24 10:50:30;;;;;;;18.67;10.27;;;2.80;99.90;;;;;;4942067;29;20074;-83
2022/01/24 10:52:58;;;;;;;31.50;12.73;;;2.90;99.90;;;;;;4925908;29;20086;-82
2022/01/24 10:55:27;;;;;;;43.53;18.13;;;3.00;99.90;;;;;;4942689;29;20035;-82
2022/01/24 10:58:09;;;;;;;29.92;12.45;;;3.10;99.90;;;;;;4926649;29;20038;-83
2022/01/24 11:00:36;;;;;;;13.32;7.18;;;3.10;99.90;;;;;;4958209;28;20039;-82
2022/01/24 11:03:03;;;;;;;14.63;7.68;;;2.90;99.90;;;;;;4941826;29;20047;-82
2022/01/24 11:05:41;;;;;;;13.23;7.07;;;2.80;99.90;;;;;;4941798;29;20050;-82
2022/01/24 11:08:09;;;;;;;33.08;12.30;;;2.70;99.90;;;;;;4942033;29;20071;-82
2022/01/24 11:10:42;;;;;;;17.42;6.50;;;2.70;99.90;;;;;;4973994;28;20023;-86
2022/01/24 11:13:08;;;;;;;14.43;7.13;;;2.70;99.90;;;;;;4978024;28;20118;-91
2022/01/24 11:15:38;;;;;;;19.17;8.20;;;2.80;99.90;;;;;;4928868;29;20031;-92
2022/01/24 11:18:05;;;;;;;16.60;7.30;;;2.90;99.90;;;;;;4945952;29;20035;-91
2022/01/24 11:20:34;;;;;;;15.02;7.43;;;3.10;99.90;;;;;;4963177;29;20046;-91
2022/01/24 11:23:02;;;;;;;22.50;10.57;;;3.20;99.90;;;;;;4945589;29;20541;-92
2022/01/24 11:25:31;;;;;;;19.30;10.23;;;3.30;99.90;;;;;;4948150;29;20023;-91
2022/01/24 11:27:57;;;;;;;15.15;7.40;;;3.50;99.90;;;;;;4931777;29;20023;-91
2022/01/24 11:30:29;;;;;;;13.35;6.18;;;3.50;99.90;;;;;;4946466;29;20075;-91
2022/01/24 11:33:15;;;;;;;14.00;6.97;;;3.50;99.90;;;;;;4929245;29;20023;-91
2022/01/24 11:35:51;;;;;;;20.20;7.22;;;3.50;99.90;;;;;;4946081;29;20039;-92
2022/01/24 11:38:44;;;;;;;13.25;6.70;;;3.40;99.90;;;;;;4945974;29;20035;-92
2022/01/24 11:41:32;;;;;;;18.17;7.13;;;3.50;99.90;;;;;;4946387;29;20039;-91
2022/01/24 11:44:10;;;;;;;14.52;6.90;;;3.70;99.90;;;;;;4945557;29;20039;-91
2022/01/24 11:46:48;;;;;;;15.93;7.45;;;3.60;99.90;;;;;;4978164;28;20059;-91
2022/01/24 11:49:36;;;;;;;13.05;7.32;;;3.80;99.90;;;;;;4977792;28;20059;-91
2022/01/24 11:52:14;;;;;;;11.40;6.53;;;3.90;99.90;;;;;;4946136;29;20478;-89
2022/01/24 11:55:13;;;;;;;14.10;7.50;;;3.80;99.90;;;;;;4978040;28;20090;-89
2022/01/24 11:57:50;;;;;;;15.45;7.85;;;3.40;99.90;;;;;;4977558;28;20134;-90
2022/01/24 12:00:26;;;;;;;12.10;7.57;;;3.30;99.90;;;;;;4943970;29;20529;-91
2022/01/24 12:02:54;;;;;;;17.15;7.38;;;3.30;99.90;;;;;;4961181;29;20038;-89
2022/01/24 12:05:24;;;;;;;18.48;8.20;;;3.30;99.90;;;;;;4943857;29;20426;-90
2022/01/24 12:07:58;;;;;;;13.27;7.80;;;3.30;99.90;;;;;;4975711;28;20027;-91
2022/01/24 12:10:25;;;;;;;16.10;8.02;;;3.40;99.90;;;;;;4975736;28;20042;-91
2022/01/24 12:12:54;;;;;;;14.75;7.70;;;3.40;99.90;;;;;;4975856;28;20023;-90
2022/01/24 12:15:38;;;;;;;14.52;7.55;;;3.20;99.90;;;;;;4960808;29;20066;-92
2022/01/24 12:18:04;;;;;;;14.77;7.97;;;3.00;99.90;;;;;;4976354;28;20039;-90
2022/01/24 12:20:30;;;;;;;15.00;8.45;;;2.80;99.90;;;;;;4976160;28;20039;-90
2022/01/24 12:23:14;;;;;;;18.60;7.85;;;2.80;99.90;;;;;;4976011;28;20034;-89
2022/01/24 12:25:57;;;;;;;24.58;8.73;;;2.70;99.90;;;;;;4975712;28;20533;-90
2022/01/24 12:28:27;;;;;;;19.75;9.05;;;2.80;99.90;;;;;;4943949;29;20041;-90
2022/01/24 12:31:21;;;;;;;17.92;8.70;;;2.70;99.90;;;;;;4976605;28;20050;-91
2022/01/24 12:33:53;;;;;;;21.70;9.45;;;2.80;99.90;;;;;;4977283;28;20028;-92
2022/01/24 12:36:50;;;;;;;20.67;9.00;;;2.80;99.90;;;;;;4978250;28;20035;-91
2022/01/24 12:39:33;;;;;;;18.40;9.57;;;2.80;99.90;;;;;;4974737;28;20393;-91
2022/01/24 12:42:11;;;;;;;20.83;10.00;;;2.90;99.90;;;;;;4942398;29;20449;-91
2022/01/24 12:47:15;;;;;;;18.17;9.32;;;2.90;99.90;;;;;;4942312;29;20055;-91
2022/01/24 12:49:42;;;;;;;16.45;9.38;;;2.90;99.90;;;;;;4926369;29;20446;-91
2022/01/24 12:52:11;;;;;;;25.30;10.05;;;2.80;99.90;;;;;;4926350;29;20031;-91
2022/01/24 12:54:40;;;;;;;17.50;10.90;;;2.90;99.90;;;;;;4942079;29;20035;-92
2022/01/24 12:57:12;;;;;;;22.08;10.40;;;3.10;99.90;;;;;;4944802;29;20070;-95
2022/01/24 12:59:38;;;;;;;16.70;9.65;;;3.20;99.90;;;;;;4931555;29;20023;-96
2022/01/24 13:02:08;;;;;;;20.40;10.48;;;3.10;99.90;;;;;;4942250;29;20035;-92
2022/01/24 13:04:39;;;;;;;22.83;10.18;;;3.10;99.90;;;;;;4943031;29;20027;-94
2022/01/24 13:07:06;;;;;;;18.63;11.00;;;3.30;99.90;;;;;;4927389;29;20078;-92
2022/01/24 13:09:34;;;;;;;20.40;9.27;;;3.30;99.90;;;;;;4927291;29;20141;-93
2022/01/24 13:12:04;;;;;;;18.90;10.93;;;3.40;99.90;;;;;;4974893;28;20027;-91
2022/01/24 13:14:44;;;;;;;22.30;11.73;;;3.40;99.90;;;;;;4926744;29;20042;-92
2022/01/24 13:22:57;;;;;;;16.50;10.05;;;3.50;99.90;;;;;;4960134;29;20024;-94
2022/01/24 13:25:29;;;;;;;21.08;10.30;;;3.50;99.90;;;;;;4926704;29;20367;-92
2022/01/24 13:27:57;;;;;;;15.82;9.55;;;3.70;99.90;;;;;;4928654;29;20482;-93
2022/01/24 13:30:27;;;;;;;16.75;9.60;;;3.80;99.90;;;;;;4942967;29;20394;-92
2022/01/24 13:32:59;;;;;;;21.52;11.40;;;3.70;99.90;;;;;;4942390;29;20039;-92
2022/01/24 13:35:32;;;;;;;35.70;15.18;;;3.70;99.90;;;;;;4942531;29;20031;-93
2022/01/24 13:38:07;;;;;;;38.70;18.33;;;3.70;99.90;;;;;;4958513;29;20042;-91
2022/01/24 13:40:39;;;;;;;33.50;15.20;;;3.70;99.90;;;;;;4926391;29;20107;-93
2022/01/24 13:43:07;;;;;;;23.90;12.75;;;3.80;99.90;;;;;;4942220;29;20059;-93
2022/01/24 13:45:38;;;;;;;31.55;15.30;;;3.60;99.90;;;;;;4958600;29;20130;-93
2022/01/24 13:48:18;;;;;;;;;;;3.70;99.90;;;;;;4927337;29;20068;-91
2022/01/24 13:50:53;;;;;;;22.55;13.60;;;3.80;99.90;;;;;;4944235;29;20384;-93
2022/01/24 13:53:44;;;;;;;18.10;11.00;;;3.70;99.90;;;;;;4961005;29;20406;-92
2022/01/24 13:56:30;;;;;;;24.63;11.95;;;3.80;99.90;;;;;;4959218;28;20054;-93
2022/01/24 13:59:09;;;;;;;23.50;12.95;;;3.70;99.90;;;;;;4974874;28;20482;-93
2022/01/24 14:01:58;;;;;;;25.17;14.82;;;3.50;99.90;;;;;;4960472;29;20027;-92
2022/01/24 14:04:52;;;;;;;21.73;12.25;;;3.40;99.90;;;;;;4959406;28;20043;-91
2022/01/24 14:07:22;;;;;;;19.48;11.32;;;3.30;99.90;;;;;;4944091;29;20114;-90
2022/01/24 14:09:52;;;;;;;18.27;11.57;;;3.40;99.90;;;;;;4944443;29;20086;-91
2022/01/24 14:12:25;;;;;;;20.25;10.57;;;3.50;99.90;;;;;;4958292;29;20027;-90
2022/01/24 14:15:03;;;;;;;21.23;10.43;;;3.60;99.90;;;;;;4927432;29;20085;-90
2022/01/24 14:20:06;;;;;;;22.33;11.48;;;3.20;99.90;;;;;;4974770;28;20035;-93
2022/01/24 14:22:44;;;;;;;20.23;9.82;;;3.10;99.90;;;;;;4926361;29;20471;-94
2022/01/24 14:25:12;;;;;;;20.48;11.18;;;2.90;99.90;;;;;;4974697;28;20067;-90
2022/01/24 14:27:46;;;;;;;21.15;11.02;;;2.80;99.90;;;;;;4926474;29;20047;-90
2022/01/24 14:30:17;;;;;;;22.63;11.20;;;2.70;99.90;;;;;;4926582;29;20102;-91
2022/01/24 14:33:21;;;;;;;20.10;11.50;;;2.70;99.90;;;;;;4942149;28;20051;-91
2022/01/24 14:35:59;;;;;;;21.75;11.30;;;2.50;99.90;;;;;;4942893;29;20036;-91
2022/01/24 14:38:34;;;;;;;23.92;11.82;;;2.50;99.90;;;;;;4959552;29;20045;-91
2022/01/24 14:41:07;;;;;;;17.17;10.68;;;2.40;99.90;;;;;;4959334;29;20098;-90
2022/01/24 14:46:22;;;;;;;20.90;10.93;;;2.60;99.90;;;;;;4958670;29;20036;-90
2022/01/24 14:48:51;;;;;;;22.48;12.40;;;2.50;99.90;;;;;;4926741;29;20031;-91
2022/01/24 14:51:23;;;;;;;21.42;12.38;;;2.50;99.90;;;;;;4926278;29;20047;-90
2022/01/24 14:53:50;;;;;;;26.42;12.52;;;2.50;99.90;;;;;;4957923;28;20035;-91
2022/01/24 14:56:16;;;;;;;19.77;11.02;;;2.50;99.90;;;;;;4926140;29;20027;-91